KAYS/AYS METAR and TAF weather

Enter ICAO airport designator
Station Type Date Time Source
KAYS METAR 2022/12/08 12:55 UTC NOAA

KAYS 081255Z AUTO 00000KT 7SM BKN003 15/14 A3024 RMK AO2 T01470141


Station Type Date Time Source
KAYS Decoded METAR 2022/12/08 12:55 UTC NOAA

Waycross / Ware County, Ga, GA, United States (KAYS) 31-15N 082-24W 46M
Dec 08, 2022 - 07:55 AM EST / 2022.12.08 1255 UTC
Wind: Calm:0
Visibility: 7 mile(s):0
Sky conditions: mostly cloudy
Temperature: 58.5 F (14.7 C)
Dew Point: 57.4 F (14.1 C)
Relative Humidity: 96%
Pressure (altimeter): 30.24 in. Hg (1024 hPa)
ob: KAYS 081255Z AUTO 00000KT 7SM BKN003 15/14 A3024 RMK AO2 T01470141
cycle: 13

Station Type Date Time Source
KAYS TAF UTC NOAA

Error!

Example: see airport list